Time;durP1;ratioP1;P1;durP2;ratioP2;P2;SDS_P1;SDS_P2;PMS_P1;PMS_P2;Temp;Humidity;BMP_temperature;BMP_pressure;BME280_temperature;BME280_humidity;BME280_pressure;Samples;Min_cycle;Max_cycle;Signal;HPM_P1;HPM_P2
2022/09/28 00:00:28;;;;;;;;;;;;;;;7.97;79.48;96430.97;5145530;27;19999;-89
2022/09/28 00:02:59;;;;;;;;;;;;;;;7.96;79.64;96426.69;5125563;27;19927;-90
2022/09/28 00:05:32;;;;;;;;;;;;;;;7.99;79.13;96417.91;5125037;27;19930;-90
2022/09/28 00:08:01;;;;;;;;;;;;;;;8.05;79.37;96413.91;5132091;27;19967;-90
2022/09/28 00:10:32;;;;;;;;;;;;;;;8.06;79.28;96404.66;5128304;27;19972;-89
2022/09/28 00:13:00;;;;;;;;;;;;;;;8.08;79.17;96405.09;5126187;27;19934;-90
2022/09/28 00:15:34;;;;;;;;;;;;;;;8.12;79.24;96411.44;5128578;27;19928;-90
2022/09/28 00:18:02;;;;;;;;;;;;;;;8.08;79.02;96405.09;5135254;27;20296;-90
2022/09/28 00:20:32;;;;;;;;;;;;;;;8.09;78.95;96395.88;5132954;27;19927;-89
2022/09/28 00:23:00;;;;;;;;;;;;;;;8.05;79.24;96384.16;5135491;27;19982;-90
2022/09/28 00:28:31;;;;;;;;;;;;;;;8.14;79.81;96376.72;5152672;27;19976;-91
2022/09/28 00:31:00;;;;;;;;;;;;;;;8.07;79.67;96374.56;5155876;27;19927;-89
2022/09/28 00:33:29;;;;;;;;;;;;;;;8.08;79.57;96368.03;5151171;27;20018;-90
2022/09/28 00:36:00;;;;;;;;;;;;;;;8.09;79.42;96369.59;5131446;27;19923;-90
2022/09/28 00:38:33;;;;;;;;;;;;;;;8.01;79.84;96367.00;5136372;27;19943;-90
2022/09/28 00:41:04;;;;;;;;;;;;;;;8.06;79.71;96359.47;5139712;27;19927;-90
2022/09/28 00:43:35;;;;;;;;;;;;;;;8.09;79.42;96341.78;5143471;27;19911;-90
2022/09/28 00:46:06;;;;;;;;;;;;;;;8.00;79.78;96341.09;5137424;27;19931;-91
2022/09/28 00:48:38;;;;;;;;;;;;;;;8.03;79.46;96343.09;5111638;27;20326;-90
2022/09/28 00:51:10;;;;;;;;;;;;;;;8.08;79.39;96334.78;5128972;27;20006;-90
2022/09/28 00:53:39;;;;;;;;;;;;;;;8.09;79.47;96331.75;5129674;27;19927;-88
2022/09/28 00:56:08;;;;;;;;;;;;;;;8.07;79.36;96328.59;5128089;27;19927;-90
2022/09/28 00:58:37;;;;;;;;;;;;;;;8.12;79.41;96325.69;5161294;27;19927;-90
2022/09/28 01:01:06;;;;;;;;;;;;;;;8.05;79.17;96333.56;5127649;27;19923;-90
2022/09/28 01:03:34;;;;;;;;;;;;;;;8.02;79.44;96326.09;5125353;27;19923;-91
2022/09/28 01:06:05;;;;;;;;;;;;;;;7.96;79.56;96326.63;5126569;27;19928;-90
2022/09/28 01:08:37;;;;;;;;;;;;;;;7.96;79.64;96315.81;5120695;27;19947;-90
2022/09/28 01:14:03;;;;;;;;;;;;;;;8.07;80.12;96306.16;5152221;27;20364;-90
2022/09/28 01:16:32;;;;;;;;;;;;;;;8.08;80.04;96303.13;5130565;27;19927;-90
2022/09/28 01:19:18;;;;;;;;;;;;;;;8.01;80.23;96294.78;5128262;27;19924;-90
2022/09/28 01:21:49;;;;;;;;;;;;;;;8.05;80.21;96289.50;5156980;27;19928;-91
2022/09/28 01:24:28;;;;;;;;;;;;;;;8.07;80.01;96290.72;5124510;27;20014;-90
2022/09/28 01:27:02;;;;;;;;;;;;;;;7.97;80.22;96279.53;5135495;27;20026;-90
2022/09/28 01:29:44;;;;;;;;;;;;;;;8.07;80.37;96273.72;5122469;27;19927;-89
2022/09/28 01:32:25;;;;;;;;;;;;;;;8.05;80.46;96262.44;5120794;27;20026;-90
2022/09/28 01:35:00;;;;;;;;;;;;;;;8.04;80.74;96252.72;5126526;27;20010;-90
2022/09/28 01:37:54;;;;;;;;;;;;;;;8.06;80.63;96250.50;5123982;27;19976;-90
2022/09/28 01:40:26;;;;;;;;;;;;;;;8.00;80.63;96241.03;5128486;27;19933;-91
2022/09/28 01:42:57;;;;;;;;;;;;;;;7.99;80.92;96231.31;5150863;27;19928;-91
2022/09/28 01:45:31;;;;;;;;;;;;;;;7.95;80.69;96223.09;5152548;27;19923;-89
2022/09/28 01:48:00;;;;;;;;;;;;;;;7.96;80.83;96227.38;5123402;27;20387;-92
2022/09/28 01:50:29;;;;;;;;;;;;;;;8.01;80.84;96221.75;5127585;27;19976;-89
2022/09/28 01:53:03;;;;;;;;;;;;;;;7.90;80.99;96209.78;5131758;27;19980;-90
2022/09/28 01:55:34;;;;;;;;;;;;;;;7.95;81.03;96208.78;5124770;27;19939;-91
2022/09/28 01:58:08;;;;;;;;;;;;;;;8.01;80.95;96200.13;5129672;27;19923;-90
2022/09/28 02:00:36;;;;;;;;;;;;;;;8.04;81.22;96196.75;5131842;27;19932;-88
2022/09/28 02:03:06;;;;;;;;;;;;;;;8.08;81.28;96186.81;5164895;27;19930;-90
2022/09/28 02:05:46;;;;;;;;;;;;;;;8.04;81.24;96185.13;5129869;27;19934;-91
2022/09/28 02:08:15;;;;;;;;;;;;;;;7.98;81.79;96194.56;5127293;27;19971;-90
2022/09/28 02:10:45;;;;;;;;;;;;;;;7.97;81.72;96184.91;5141934;27;19923;-90
2022/09/28 02:13:16;;;;;;;;;;;;;;;7.98;81.98;96175.66;5153195;27;19946;-90
2022/09/28 02:15:51;;;;;;;;;;;;;;;7.97;82.41;96176.78;5130653;27;19972;-90
2022/09/28 02:21:15;;;;;;;;;;;;;;;7.96;82.97;96169.81;5128654;27;19935;-91
2022/09/28 02:23:46;;;;;;;;;;;;;;;7.85;82.92;96167.53;5127575;27;19930;-91
2022/09/28 02:26:15;;;;;;;;;;;;;;;7.94;83.55;96158.53;5138431;27;19976;-92
2022/09/28 02:28:44;;;;;;;;;;;;;;;7.85;83.27;96154.00;5120163;27;19923;-89
2022/09/28 02:31:13;;;;;;;;;;;;;;;7.86;84.00;96144.78;5151766;27;19933;-91
2022/09/28 02:33:41;;;;;;;;;;;;;;;7.92;84.42;96147.25;5126982;27;19927;-89
2022/09/28 02:36:11;;;;;;;;;;;;;;;7.90;84.43;96144.91;5129402;27;19968;-89
2022/09/28 02:38:39;;;;;;;;;;;;;;;7.93;84.95;96141.50;5134576;27;19923;-90
2022/09/28 02:41:09;;;;;;;;;;;;;;;7.88;85.20;96137.13;5153069;27;19968;-90
2022/09/28 02:43:48;;;;;;;;;;;;;;;7.86;84.82;96135.88;5145704;27;19953;-91
2022/09/28 02:46:21;;;;;;;;;;;;;;;7.90;85.59;96130.59;5149887;27;19927;-90
2022/09/28 02:49:21;;;;;;;;;;;;;;;7.88;85.65;96129.03;5152331;27;19929;-90
2022/09/28 02:52:01;;;;;;;;;;;;;;;7.88;86.08;96139.84;5129039;27;19966;-91
2022/09/28 02:54:58;;;;;;;;;;;;;;;7.88;86.37;96134.44;5131151;27;19938;-90
2022/09/28 02:57:31;;;;;;;;;;;;;;;7.94;85.94;96124.19;5139245;27;19935;-90
2022/09/28 03:03:12;;;;;;;;;;;;;;;7.85;85.62;96118.88;5139230;27;19923;-91
2022/09/28 03:05:43;;;;;;;;;;;;;;;7.82;86.10;96110.63;5121822;27;19980;-90
2022/09/28 03:08:15;;;;;;;;;;;;;;;7.79;86.06;96114.81;5156203;27;19933;-89
2022/09/28 03:10:44;;;;;;;;;;;;;;;7.77;86.14;96108.94;5123866;27;19927;-89
2022/09/28 03:13:13;;;;;;;;;;;;;;;7.80;86.61;96102.09;5163331;27;20022;-90
2022/09/28 03:15:43;;;;;;;;;;;;;;;7.84;86.89;96092.97;5134068;27;20021;-89
2022/09/28 03:18:16;;;;;;;;;;;;;;;7.77;86.44;96098.13;5131560;27;20026;-90
2022/09/28 03:20:48;;;;;;;;;;;;;;;7.79;86.41;96095.88;5160390;27;19923;-90
2022/09/28 03:23:19;;;;;;;;;;;;;;;7.77;86.79;96087.31;5136013;27;19923;-91
2022/09/28 03:25:52;;;;;;;;;;;;;;;7.79;87.16;96087.78;5131869;27;19930;-89
2022/09/28 03:28:45;;;;;;;;;;;;;;;7.79;87.17;96076.97;5130028;27;20006;-91
2022/09/28 03:31:21;;;;;;;;;;;;;;;7.81;87.39;96079.31;5119396;27;19950;-90
2022/09/28 03:33:50;;;;;;;;;;;;;;;7.83;87.27;96079.78;5153185;27;20369;-89
2022/09/28 03:36:18;;;;;;;;;;;;;;;7.83;87.36;96075.16;5130087;27;20384;-91
2022/09/28 03:38:46;;;;;;;;;;;;;;;7.75;86.75;96067.16;5130236;27;20026;-90
2022/09/28 03:41:16;;;;;;;;;;;;;;;7.81;87.07;96065.81;5150428;27;20340;-90
2022/09/28 03:43:46;;;;;;;;;;;;;;;7.83;87.30;96056.25;5137201;27;19930;-91
2022/09/28 03:46:15;;;;;;;;;;;;;;;7.79;87.22;96057.25;5128258;27;20242;-90
2022/09/28 03:48:49;;;;;;;;;;;;;;;7.80;87.15;96050.72;5153983;27;20124;-90
2022/09/28 03:51:41;;;;;;;;;;;;;;;7.87;87.66;96048.22;5130805;27;20389;-91
2022/09/28 03:54:09;;;;;;;;;;;;;;;7.87;87.49;96043.59;5131975;27;19985;-89
2022/09/28 03:56:37;;;;;;;;;;;;;;;7.87;87.70;96038.19;5130110;27;19934;-89
2022/09/28 03:59:10;;;;;;;;;;;;;;;7.79;87.31;96024.81;5135731;27;19969;-89
2022/09/28 04:01:39;;;;;;;;;;;;;;;7.86;87.90;96036.63;5132186;27;19924;-91
2022/09/28 04:04:12;;;;;;;;;;;;;;;7.80;87.63;96026.38;5130087;27;20297;-90
2022/09/28 04:06:42;;;;;;;;;;;;;;;7.84;87.96;96028.06;5137006;27;19924;-89
2022/09/28 04:09:11;;;;;;;;;;;;;;;7.86;88.07;96020.41;5136089;27;20463;-90
2022/09/28 04:11:39;;;;;;;;;;;;;;;7.86;88.42;96020.41;5131226;27;19923;-90
2022/09/28 04:14:28;;;;;;;;;;;;;;;7.72;88.29;96014.56;5120707;27;19931;-89
2022/09/28 04:16:57;;;;;;;;;;;;;;;7.67;88.31;96001.28;5129558;27;20563;-88
2022/09/28 04:19:31;;;;;;;;;;;;;;;7.72;89.06;96008.34;5129089;27;20434;-90
2022/09/28 04:22:19;;;;;;;;;;;;;;;7.69;88.78;95993.63;5152336;27;19961;-88
2022/09/28 04:24:49;;;;;;;;;;;;;;;7.68;88.76;95992.06;5130075;27;20010;-89
2022/09/28 04:30:06;;;;;;;;;;;;;;;7.71;88.97;95982.47;5154527;27;19930;-89
2022/09/28 04:32:44;;;;;;;;;;;;;;;7.68;88.65;95989.34;5142266;27;20384;-91
2022/09/28 04:35:20;;;;;;;;;;;;;;;7.55;88.88;95971.56;5157227;27;19954;-90
2022/09/28 04:37:50;;;;;;;;;;;;;;;7.64;89.59;95974.16;5124037;27;20429;-90
2022/09/28 04:40:19;;;;;;;;;;;;;;;7.69;89.78;95969.28;5130176;27;19923;-91
2022/09/28 04:42:53;;;;;;;;;;;;;;;7.76;89.69;95974.13;5114934;27;19958;-89
2022/09/28 04:45:24;;;;;;;;;;;;;;;7.76;89.96;95983.00;5126554;27;19928;-89
2022/09/28 04:47:58;;;;;;;;;;;;;;;7.67;89.84;95973.44;5135087;27;19952;-90
2022/09/28 04:50:54;;;;;;;;;;;;;;;7.80;90.15;95972.31;5130567;27;20277;-89
2022/09/28 04:53:23;;;;;;;;;;;;;;;7.86;90.14;95974.44;5122428;27;19930;-83
2022/09/28 04:55:55;;;;;;;;;;;;;;;7.92;90.13;95974.22;5126735;27;20018;-89
2022/09/28 04:58:30;;;;;;;;;;;;;;;7.92;90.02;95976.91;5144938;27;19968;-81
2022/09/28 05:00:59;;;;;;;;;;;;;;;7.93;89.94;95979.28;5128334;27;20340;-79
2022/09/28 05:03:47;;;;;;;;;;;;;;;7.96;90.16;95969.69;5140517;27;19965;-80
2022/09/28 05:06:36;;;;;;;;;;;;;;;7.96;90.45;95975.13;5111588;27;19934;-78
2022/09/28 05:09:08;;;;;;;;;;;;;;;7.98;90.39;95968.22;5155380;27;19929;-78
2022/09/28 05:11:39;;;;;;;;;;;;;;;7.97;90.50;95973.97;5127133;27;19931;-76
2022/09/28 05:14:12;;;;;;;;;;;;;;;7.99;90.44;95967.13;5139008;27;19923;-90
2022/09/28 05:16:51;;;;;;;;;;;;;;;8.02;90.55;95960.22;5146991;27;19933;-88
2022/09/28 05:19:21;;;;;;;;;;;;;;;8.01;90.43;95956.72;5155264;27;19929;-90
2022/09/28 05:21:57;;;;;;;;;;;;;;;8.02;90.71;95954.81;5158170;27;19923;-89
2022/09/28 05:24:28;;;;;;;;;;;;;;;8.05;90.92;95946.03;5125770;27;19924;-88
2022/09/28 05:26:57;;;;;;;;;;;;;;;8.04;90.94;95947.13;5129939;27;19931;-79
2022/09/28 05:29:26;;;;;;;;;;;;;;;8.05;91.14;95941.41;5116909;27;19961;-89
2022/09/28 05:32:17;;;;;;;;;;;;;;;8.08;91.48;95945.31;5148674;27;19924;-74
2022/09/28 05:35:23;;;;;;;;;;;;;;;8.08;91.27;95940.69;5048576;28;19940;-92
2022/09/28 05:37:54;;;;;;;;;;;;;;;8.12;91.65;95935.41;5062384;28;20018;-95
2022/09/28 05:40:27;;;;;;;;;;;;;;;8.16;91.79;95938.22;5093611;27;19930;-85
2022/09/28 05:43:02;;;;;;;;;;;;;;;8.20;92.22;95942.56;5146117;27;20297;-88
2022/09/28 05:45:32;;;;;;;;;;;;;;;8.25;92.21;95949.66;5130367;27;19923;-85
2022/09/28 05:48:05;;;;;;;;;;;;;;;8.27;92.26;95952.84;5131849;27;19927;-84
2022/09/28 05:50:34;;;;;;;;;;;;;;;8.29;92.00;95950.56;5130932;27;19945;-86
2022/09/28 05:53:07;;;;;;;;;;;;;;;8.28;92.04;95952.47;5130581;27;19923;-80
2022/09/28 05:55:37;;;;;;;;;;;;;;;8.28;91.84;95960.59;5153860;27;20270;-82
2022/09/28 05:58:06;;;;;;;;;;;;;;;8.29;91.98;95956.75;5126872;27;19930;-84
2022/09/28 06:00:36;;;;;;;;;;;;;;;8.29;92.12;95950.56;5127625;27;19927;-88
2022/09/28 06:03:08;;;;;;;;;;;;;;;8.26;92.12;95943.94;5109864;28;19923;-87
2022/09/28 06:08:37;;;;;;;;;;;;;;;8.33;92.11;95944.13;5125426;27;19924;-84
2022/09/28 06:11:26;;;;;;;;;;;;;;;8.35;92.12;95943.75;5123722;27;19930;-85
2022/09/28 06:13:58;;;;;;;;;;;;;;;8.35;92.25;95946.47;5131814;27;20022;-87
2022/09/28 06:16:30;;;;;;;;;;;;;;;8.35;92.05;95947.25;5154920;27;20379;-87
2022/09/28 06:19:00;;;;;;;;;;;;;;;8.42;92.25;95954.06;5151564;27;19976;-84
2022/09/28 06:21:50;;;;;;;;;;;;;;;8.48;92.31;95949.97;5131858;27;20381;-86
2022/09/28 06:24:20;;;;;;;;;;;;;;;8.51;92.03;95946.53;5136106;27;19923;-86
2022/09/28 06:26:54;;;;;;;;;;;;;;;8.56;91.70;95949.78;5121955;27;19930;-85
2022/09/28 06:29:30;;;;;;;;;;;;;;;8.58;91.81;95954.88;5135926;27;19931;-86
2022/09/28 06:32:01;;;;;;;;;;;;;;;8.63;91.79;95966.25;5112360;27;19931;-86
2022/09/28 06:34:33;;;;;;;;;;;;;;;8.70;91.79;95971.06;5124666;27;19923;-88
2022/09/28 06:37:03;;;;;;;;;;;;;;;8.73;91.54;95966.84;5135420;27;19971;-86
2022/09/28 06:39:37;;;;;;;;;;;;;;;8.75;91.21;95983.56;5131209;27;20014;-88
2022/09/28 06:42:06;;;;;;;;;;;;;;;8.77;90.64;95987.47;5138264;27;19929;-87
2022/09/28 06:44:54;;;;;;;;;;;;;;;8.81;90.09;95985.66;5150330;27;19924;-87
2022/09/28 06:48:03;;;;;;;;;;;;;;;8.85;90.02;95978.41;5136172;27;19927;-85
2022/09/28 06:50:41;;;;;;;;;;;;;;;9.00;87.62;95981.47;5132814;27;19923;-87
2022/09/28 06:53:28;;;;;;;;;;;;;;;8.91;87.75;95974.31;5131715;27;19934;-85
2022/09/28 06:56:19;;;;;;;;;;;;;;;8.87;87.37;95983.47;5152326;27;19923;-87
2022/09/28 06:58:49;;;;;;;;;;;;;;;8.89;87.67;95992.84;5132467;27;19924;-87
2022/09/28 07:01:18;;;;;;;;;;;;;;;8.89;87.73;95994.75;5130124;27;19929;-86
2022/09/28 07:03:56;;;;;;;;;;;;;;;8.93;87.36;95995.63;5127914;27;19923;-88
2022/09/28 07:06:47;;;;;;;;;;;;;;;9.06;86.30;95996.38;5133671;27;19957;-87
2022/09/28 07:09:46;;;;;;;;;;;;;;;8.99;86.85;95998.88;5135955;27;19923;-87
2022/09/28 07:12:31;;;;;;;;;;;;;;;9.11;85.79;96007.72;5137482;27;20026;-88
2022/09/28 07:15:03;;;;;;;;;;;;;;;9.07;85.73;96011.47;5125121;27;19924;-80
2022/09/28 07:17:33;;;;;;;;;;;;;;;8.93;88.61;96018.09;5158259;27;20414;-90
2022/09/28 07:20:12;;;;;;;;;;;;;;;8.87;90.76;96029.50;5144953;27;19930;-86
2022/09/28 07:23:10;;;;;;;;;;;;;;;8.78;91.04;96035.06;5149355;27;20296;-91
2022/09/28 07:26:07;;;;;;;;;;;;;;;8.80;92.19;96022.00;5146051;27;19923;-87
2022/09/28 07:29:04;;;;;;;;;;;;;;;8.86;92.68;96036.84;5145377;27;20576;-87
2022/09/28 07:31:44;;;;;;;;;;;;;;;8.92;92.62;96031.97;5148680;27;19932;-88
2022/09/28 07:34:38;;;;;;;;;;;;;;;8.96;91.55;96037.50;5163240;27;19923;-89
2022/09/28 07:37:14;;;;;;;;;;;;;;;8.96;91.94;96041.00;5132928;27;19923;-90
2022/09/28 07:42:35;;;;;;;;;;;;;;;8.93;89.98;96055.22;5165143;27;19923;-89
2022/09/28 07:45:30;;;;;;;;;;;;;;;8.89;90.70;96052.44;5140431;27;19958;-89
2022/09/28 07:48:01;;;;;;;;;;;;;;;8.85;90.65;96048.81;5134838;27;19970;-90
2022/09/28 07:51:07;;;;;;;;;;;;;;;8.93;90.25;96063.34;5132383;27;20296;-90
2022/09/28 07:53:42;;;;;;;;;;;;;;;8.88;90.67;96069.78;5109987;27;20436;-90
2022/09/28 07:56:53;;;;;;;;;;;;;;;8.88;88.09;96080.63;5140488;27;19931;-90
2022/09/28 07:59:30;;;;;;;;;;;;;;;8.84;85.10;96079.75;5131290;27;19923;-90
2022/09/28 08:02:20;;;;;;;;;;;;;;;8.71;83.80;96086.31;5143112;27;19927;-91
2022/09/28 08:04:50;;;;;;;;;;;;;;;8.70;84.01;96092.09;5130614;27;20400;-90
2022/09/28 08:07:20;;;;;;;;;;;;;;;8.61;85.11;96084.88;5126232;27;20372;-90
2022/09/28 08:09:57;;;;;;;;;;;;;;;8.55;85.50;96094.38;5129240;27;20018;-90
2022/09/28 08:12:28;;;;;;;;;;;;;;;8.49;85.51;96086.84;5142609;27;19962;-90
2022/09/28 08:15:26;;;;;;;;;;;;;;;8.48;85.58;96099.59;5058855;27;19944;-88
2022/09/28 08:23:51;;;;;;;;;;;;;;;8.44;86.26;96103.31;5131555;27;19934;-90
2022/09/28 08:26:20;;;;;;;;;;;;;;;8.50;86.49;96118.97;5154489;27;19975;-91
2022/09/28 08:28:50;;;;;;;;;;;;;;;8.48;85.12;96121.25;5153598;27;19923;-90
2022/09/28 08:31:45;;;;;;;;;;;;;;;8.47;86.07;96119.66;5129605;27;19968;-90
2022/09/28 08:34:34;;;;;;;;;;;;;;;8.56;86.39;96128.44;5150613;27;20191;-90
2022/09/28 08:37:08;;;;;;;;;;;;;;;8.63;85.78;96117.03;5146306;27;19923;-90
2022/09/28 08:39:55;;;;;;;;;;;;;;;8.73;84.71;96129.28;5148635;27;19924;-90
2022/09/28 08:42:44;;;;;;;;;;;;;;;8.75;85.07;96125.13;5129279;27;19937;-90
2022/09/28 08:45:43;;;;;;;;;;;;;;;8.89;84.21;96124.72;5140589;27;19923;-91
2022/09/28 08:51:28;;;;;;;;;;;;;;;9.00;82.65;96135.88;5141067;27;19924;-91
2022/09/28 08:54:09;;;;;;;;;;;;;;;9.11;82.44;96136.97;5123496;27;19931;-92
2022/09/28 08:56:57;;;;;;;;;;;;;;;9.22;81.89;96143.47;5124032;27;20018;-90
2022/09/28 08:59:26;;;;;;;;;;;;;;;9.39;79.09;96150.50;5133099;27;19923;-89
2022/09/28 09:02:09;;;;;;;;;;;;;;;9.52;79.53;96151.22;5124815;27;20015;-90
2022/09/28 09:04:38;;;;;;;;;;;;;;;9.65;77.57;96160.88;5123850;27;20385;-89
2022/09/28 09:07:41;;;;;;;;;;;;;;;9.73;78.83;96161.84;5130086;27;19952;-78
2022/09/28 09:10:17;;;;;;;;;;;;;;;9.75;76.48;96160.38;5154753;27;20020;-79
2022/09/28 09:12:50;;;;;;;;;;;;;;;9.61;75.82;96165.41;5160719;27;19931;-80
2022/09/28 09:15:27;;;;;;;;;;;;;;;9.56;75.02;96160.25;5124556;27;19963;-78
2022/09/28 09:18:02;;;;;;;;;;;;;;;9.43;76.23;96163.03;5131339;27;19975;-79
2022/09/28 09:20:56;;;;;;;;;;;;;;;9.47;75.63;96171.22;5148063;27;20334;-79
2022/09/28 09:23:42;;;;;;;;;;;;;;;9.47;75.17;96175.88;5131649;27;19923;-79
2022/09/28 09:26:16;;;;;;;;;;;;;;;9.34;75.40;96169.72;5124009;27;19974;-80
2022/09/28 09:29:08;;;;;;;;;;;;;;;9.33;76.57;96170.88;5130890;27;19984;-83
2022/09/28 09:31:58;;;;;;;;;;;;;;;9.50;76.66;96172.47;5121967;27;19923;-78
2022/09/28 09:34:35;;;;;;;;;;;;;;;9.58;75.71;96164.16;5145940;27;19923;-79
2022/09/28 09:37:29;;;;;;;;;;;;;;;9.58;75.43;96174.22;5148110;27;19954;-79
2022/09/28 09:40:44;;;;;;;;;;;;;;;9.63;75.85;96176.69;5128406;27;19927;-78
2022/09/28 09:43:57;;;;;;;;;;;;;;;9.66;74.90;96184.16;5075296;27;19924;-80
2022/09/28 09:46:45;;;;;;;;;;;;;;;9.70;74.53;96179.63;5147236;27;20030;-75
2022/09/28 09:49:19;;;;;;;;;;;;;;;9.77;73.86;96187.91;5132369;27;19923;-72
2022/09/28 09:51:52;;;;;;;;;;;;;;;9.83;73.00;96189.25;5125626;27;19931;-78
2022/09/28 09:57:33;;;;;;;;;;;;;;;9.72;73.50;96182.75;5128554;27;19923;-80
2022/09/28 10:00:31;;;;;;;;;;;;;;;9.68;73.05;96187.28;5118237;27;19923;-78
2022/09/28 10:03:16;;;;;;;;;;;;;;;9.80;72.10;96197.28;5135977;27;19924;-78
2022/09/28 10:08:40;;;;;;;;;;;;;;;10.16;71.92;96196.25;5132940;27;19980;-79
2022/09/28 10:11:13;;;;;;;;;;;;;;;10.12;70.02;96204.34;5132649;27;19950;-78
2022/09/28 10:13:48;;;;;;;;;;;;;;;10.21;71.44;96191.34;5121874;27;20276;-79
2022/09/28 10:16:40;;;;;;;;;;;;;;;10.36;70.26;96191.75;5141471;27;19929;-80
2022/09/28 10:19:21;;;;;;;;;;;;;;;10.62;69.96;96196.63;5134351;27;20018;-78
2022/09/28 10:22:09;;;;;;;;;;;;;;;10.76;68.30;96191.53;5144157;27;19930;-79
2022/09/28 10:24:40;;;;;;;;;;;;;;;10.62;66.49;96200.13;5135111;27;20282;-79
2022/09/28 10:27:12;;;;;;;;;;;;;;;10.51;67.17;96209.16;5153606;27;19928;-83
2022/09/28 10:29:44;;;;;;;;;;;;;;;10.36;67.32;96200.66;5123924;27;20323;-78
2022/09/28 10:32:18;;;;;;;;;;;;;;;10.36;68.98;96210.75;5134050;27;19923;-78
2022/09/28 10:34:53;;;;;;;;;;;;;;;10.38;69.62;96208.44;5128367;27;19923;-78
2022/09/28 10:37:53;;;;;;;;;;;;;;;10.32;68.83;96205.22;5137029;27;20446;-78
2022/09/28 10:40:43;;;;;;;;;;;;;;;10.34;68.50;96204.88;5131731;27;20009;-80
2022/09/28 10:43:18;;;;;;;;;;;;;;;10.38;67.59;96217.38;5129346;27;19967;-76
2022/09/28 10:45:48;;;;;;;;;;;;;;;10.37;68.86;96213.09;5116616;27;19923;-78
2022/09/28 10:48:27;;;;;;;;;;;;;;;10.30;67.68;96218.38;5107081;27;19923;-90
2022/09/28 10:51:02;;;;;;;;;;;;;;;10.28;66.30;96204.38;5115333;28;19967;-90
2022/09/28 10:53:43;;;;;;;;;;;;;;;10.20;66.74;96206.06;5087602;27;19932;-79
2022/09/28 10:56:32;;;;;;;;;;;;;;;10.20;66.80;96208.00;5108052;27;19932;-89
2022/09/28 10:59:05;;;;;;;;;;;;;;;10.18;66.73;96213.78;5117011;27;19963;-89
2022/09/28 11:02:26;;;;;;;;;;;;;;;10.23;65.24;96212.75;5109257;27;19923;-90
2022/09/28 11:05:04;;;;;;;;;;;;;;;10.14;65.42;96215.63;5120531;27;19924;-90
2022/09/28 11:08:00;;;;;;;;;;;;;;;10.20;64.46;96206.06;5108179;27;19928;-91
2022/09/28 11:10:38;;;;;;;;;;;;;;;10.37;64.69;96204.16;5108123;27;19928;-91
2022/09/28 11:13:16;;;;;;;;;;;;;;;10.48;64.55;96202.50;5104629;28;19927;-90
2022/09/28 11:15:55;;;;;;;;;;;;;;;10.62;64.91;96207.47;5115658;27;19928;-92
2022/09/28 11:18:33;;;;;;;;;;;;;;;10.70;60.63;96207.28;5109480;27;19923;-91
2022/09/28 11:21:30;;;;;;;;;;;;;;;10.73;59.42;96208.50;5132422;27;19959;-89
2022/09/28 11:27:12;;;;;;;;;;;;;;;10.80;60.72;96203.22;5200529;22;19929;-79
2022/09/28 11:29:44;;;;;;;;;;;;;;;10.86;61.21;96196.38;5017220;28;20668;-76
2022/09/28 11:32:39;;;;;;;;;;;;;;;10.92;60.22;96211.28;5012566;28;20514;-76
2022/09/28 11:35:23;;;;;;;;;;;;;;;11.04;61.12;96207.66;5031526;28;20007;-78
2022/09/28 11:38:13;;;;;;;;;;;;;;;11.13;60.48;96200.09;5029780;28;20047;-77
2022/09/28 11:41:26;;;;;;;;;;;;;;;11.06;61.53;96199.91;5030699;28;19929;-77
2022/09/28 11:44:03;;;;;;;;;;;;;;;10.89;60.38;96203.03;5028265;28;19964;-79
2022/09/28 11:46:32;;;;;;;;;;;;;;;10.76;61.38;96207.81;5013772;28;19925;-78
2022/09/28 11:49:24;;;;;;;;;;;;;;;10.69;61.58;96204.91;5014856;28;19929;-77
2022/09/28 11:51:53;;;;;;;;;;;;;;;10.66;62.01;96208.34;5027355;28;19945;-78
2022/09/28 11:54:25;;;;;;;;;;;;;;;10.58;60.76;96209.31;5028321;28;20020;-77
2022/09/28 11:56:55;;;;;;;;;;;;;;;10.54;61.40;96206.50;5010045;28;19930;-79
2022/09/28 11:59:27;;;;;;;;;;;;;;;10.51;62.28;96217.31;5025214;28;19975;-79
2022/09/28 12:01:57;;;;;;;;;;;;;;;10.59;61.90;96219.03;5014706;28;19943;-78
2022/09/28 12:04:42;;;;;;;;;;;;;;;10.63;61.27;96214.47;5015733;28;19932;-78
2022/09/28 12:07:14;;;;;;;;;;;;;;;10.72;61.20;96213.16;5015647;28;19933;-79
2022/09/28 12:09:43;;;;;;;;;;;;;;;10.82;61.95;96211.03;5012311;28;19926;-79
2022/09/28 12:12:20;;;;;;;;;;;;;;;10.99;60.45;96222.31;5028389;28;19925;-78
2022/09/28 12:14:54;;;;;;;;;;;;;;;11.20;59.70;96221.19;5010383;28;20011;-78
2022/09/28 12:17:23;;;;;;;;;;;;;;;11.27;59.31;96218.63;5027763;28;20008;-78
2022/09/28 12:20:00;;;;;;;;;;;;;;;11.30;58.01;96215.19;5010255;28;20571;-78
2022/09/28 12:22:30;;;;;;;;;;;;;;;11.32;57.73;96212.88;5028161;28;20000;-77
2022/09/28 12:24:59;;;;;;;;;;;;;;;11.35;58.24;96209.47;5013381;28;19968;-77
2022/09/28 12:27:56;;;;;;;;;;;;;;;11.36;58.71;96219.19;5029620;28;19976;-78
2022/09/28 12:30:26;;;;;;;;;;;;;;;11.40;58.47;96220.06;5014144;28;19929;-78
2022/09/28 12:32:55;;;;;;;;;;;;;;;11.58;58.33;96214.97;5010102;28;20280;-77
2022/09/28 12:35:26;;;;;;;;;;;;;;;11.51;58.12;96223.78;5012624;28;20019;-78
2022/09/28 12:38:07;;;;;;;;;;;;;;;11.65;58.34;96214.31;5014324;28;19925;-77
2022/09/28 12:40:37;;;;;;;;;;;;;;;11.79;56.67;96218.09;5031660;28;19959;-77
2022/09/28 12:43:16;;;;;;;;;;;;;;;11.79;55.94;96215.38;5014840;28;19931;-77
2022/09/28 12:45:51;;;;;;;;;;;;;;;11.86;56.63;96214.75;5012352;28;20012;-77
2022/09/28 12:48:43;;;;;;;;;;;;;;;11.80;54.67;96216.16;5016962;28;19932;-78
2022/09/28 12:51:48;;;;;;;;;;;;;;;11.77;55.00;96220.41;5031539;28;19926;-79
2022/09/28 12:54:33;;;;;;;;;;;;;;;11.87;54.57;96221.75;5013795;28;19925;-79
2022/09/28 12:57:05;;;;;;;;;;;;;;;11.84;54.19;96225.22;5026184;28;20306;-78
2022/09/28 12:59:35;;;;;;;;;;;;;;;11.85;54.63;96220.56;5029309;28;19925;-80
2022/09/28 13:02:24;;;;;;;;;;;;;;;11.75;54.84;96222.69;5012675;28;20422;-79
2022/09/28 13:05:08;;;;;;;;;;;;;;;11.81;55.16;96225.91;5005503;28;19925;-79
2022/09/28 13:07:38;;;;;;;;;;;;;;;11.87;54.72;96227.19;5012339;28;19992;-79
2022/09/28 13:10:13;;;;;;;;;;;;;;;11.79;53.26;96228.97;5012389;28;19925;-79
2022/09/28 13:12:45;;;;;;;;;;;;;;;11.82;53.82;96219.31;5022718;28;20019;-81
2022/09/28 13:15:26;;;;;;;;;;;;;;;11.73;53.40;96222.25;5027404;28;20023;-79
2022/09/28 13:18:00;;;;;;;;;;;;;;;11.72;53.86;96219.91;5011795;28;20016;-79
2022/09/28 13:20:34;;;;;;;;;;;;;;;11.80;54.24;96218.88;5014557;28;19933;-79
2022/09/28 13:23:06;;;;;;;;;;;;;;;11.81;53.01;96223.16;5014710;28;19925;-79
2022/09/28 13:28:31;;;;;;;;;;;;;;;11.87;53.05;96227.19;5014870;28;19932;-80
2022/09/28 13:31:01;;;;;;;;;;;;;;;11.99;53.33;96231.72;5013479;28;19926;-79
2022/09/28 13:33:35;;;;;;;;;;;;;;;11.94;52.41;96219.19;5005280;28;20020;-79
2022/09/28 13:36:29;;;;;;;;;;;;;;;11.91;52.05;96225.34;5024783;28;19961;-79
2022/09/28 13:38:58;;;;;;;;;;;;;;;11.97;52.83;96228.56;5015784;28;20407;-77
2022/09/28 13:41:30;;;;;;;;;;;;;;;12.01;52.26;96230.19;5000202;28;20015;-76
2022/09/28 13:44:23;;;;;;;;;;;;;;;12.09;53.51;96222.16;5004617;28;20580;-76
2022/09/28 13:46:58;;;;;;;;;;;;;;;12.11;53.31;96219.88;5015633;28;19940;-81
2022/09/28 13:49:27;;;;;;;;;;;;;;;12.04;53.11;96221.31;5007138;28;19926;-76
2022/09/28 13:52:01;;;;;;;;;;;;;;;12.01;53.19;96229.41;5009696;28;19975;-75
2022/09/28 13:54:36;;;;;;;;;;;;;;;11.83;54.36;96231.03;5008716;28;19932;-76
2022/09/28 13:57:11;;;;;;;;;;;;;;;11.73;54.67;96235.88;5018613;28;20299;-76
2022/09/28 13:59:44;;;;;;;;;;;;;;;11.59;55.30;96238.28;5007997;28;19926;-76
2022/09/28 14:02:17;;;;;;;;;;;;;;;11.53;55.47;96235.06;5025182;28;20641;-76
2022/09/28 14:04:53;;;;;;;;;;;;;;;11.50;55.89;96240.44;5001042;28;19933;-76
2022/09/28 14:07:24;;;;;;;;;;;;;;;11.57;56.15;96245.25;5009306;28;19925;-77
2022/09/28 14:10:07;;;;;;;;;;;;;;;11.51;55.67;96242.03;5005789;28;20024;-77
2022/09/28 14:12:46;;;;;;;;;;;;;;;11.45;56.22;96246.16;5007518;28;19972;-77
2022/09/28 14:15:33;;;;;;;;;;;;;;;11.45;56.96;96244.25;5006602;28;19929;-77
2022/09/28 14:18:07;;;;;;;;;;;;;;;11.37;57.55;96245.22;5008115;28;19925;-78
2022/09/28 14:20:35;;;;;;;;;;;;;;;11.37;56.72;96244.44;4999490;28;20380;-76
2022/09/28 14:23:34;;;;;;;;;;;;;;;11.39;58.43;96240.22;5004503;28;19925;-77
2022/09/28 14:26:06;;;;;;;;;;;;;;;11.38;58.16;96246.81;4914586;29;19927;-77